createdAt,value
2022-12-03T00:01:01.672Z,57.17
2022-12-03T00:03:29.563Z,64.07
2022-12-03T00:05:56.684Z,58.87
2022-12-03T00:08:23.629Z,52.87
2022-12-03T00:10:50.529Z,59.47
2022-12-03T00:13:17.434Z,60.53
2022-12-03T00:15:44.471Z,58.43
2022-12-03T00:18:11.475Z,63.30
2022-12-03T00:20:38.394Z,66.90
2022-12-03T00:23:05.552Z,69.57
2022-12-03T00:25:32.522Z,66.83
2022-12-03T00:27:59.502Z,64.43
2022-12-03T00:30:26.439Z,62.50
2022-12-03T00:32:53.353Z,57.07
2022-12-03T00:35:21.427Z,62.80
2022-12-03T00:37:48.439Z,59.57
2022-12-03T00:40:15.505Z,62.43
2022-12-03T00:42:42.461Z,61.83
2022-12-03T00:45:09.959Z,60.47
2022-12-03T00:47:36.886Z,57.00
2022-12-03T00:50:05.386Z,61.63
2022-12-03T00:52:32.351Z,61.50
2022-12-03T00:54:59.256Z,64.27
2022-12-03T00:57:26.192Z,63.57
2022-12-03T00:59:53.105Z,53.53
2022-12-03T01:02:20.091Z,60.80
2022-12-03T01:04:47.163Z,52.43
2022-12-03T01:07:14.509Z,60.37
2022-12-03T01:09:41.408Z,58.00
2022-12-03T01:12:08.309Z,51.70
2022-12-03T01:14:35.273Z,57.30
2022-12-03T01:17:02.185Z,53.00
2022-12-03T01:19:29.289Z,62.37
2022-12-03T01:21:56.301Z,50.33
2022-12-03T01:24:23.222Z,53.20
2022-12-03T01:26:50.221Z,52.80
2022-12-03T01:29:17.248Z,48.43
2022-12-03T01:32:02.928Z,57.63
2022-12-03T01:34:29.997Z,58.40
2022-12-03T01:36:57.202Z,52.63
2022-12-03T01:39:24.418Z,56.17
2022-12-03T01:41:53.183Z,65.23
2022-12-03T01:44:27.391Z,52.40
2022-12-03T01:46:56.754Z,49.60
2022-12-03T01:49:56.836Z,47.07
2022-12-03T01:52:29.151Z,48.00
2022-12-03T01:55:00.391Z,50.97
2022-12-03T01:57:41.029Z,47.93
2022-12-03T02:00:19.435Z,48.17
2022-12-03T02:02:50.288Z,52.63
2022-12-03T02:05:21.204Z,42.77
2022-12-03T02:07:48.853Z,51.30
2022-12-03T02:10:20.067Z,47.97
2022-12-03T02:13:03.020Z,43.83
2022-12-03T02:15:30.483Z,42.37
2022-12-03T02:17:57.828Z,42.87
2022-12-03T02:20:24.868Z,46.43
2022-12-03T02:23:03.977Z,43.33
2022-12-03T02:25:34.694Z,48.77
2022-12-03T02:28:03.670Z,42.17
2022-12-03T02:30:32.262Z,50.47
2022-12-03T02:32:59.768Z,43.17
2022-12-03T02:35:31.665Z,44.23
2022-12-03T02:38:19.917Z,44.53
2022-12-03T02:40:49.721Z,38.30
2022-12-03T02:43:20.456Z,38.37
2022-12-03T02:45:52.022Z,42.17
2022-12-03T02:48:34.728Z,37.10
2022-12-03T02:51:05.987Z,40.13
2022-12-03T02:53:45.081Z,43.67
2022-12-03T02:56:17.002Z,42.60
2022-12-03T02:58:47.071Z,39.07
2022-12-03T03:01:15.555Z,39.13
2022-12-03T03:03:43.668Z,37.90
2022-12-03T03:06:11.073Z,35.30
2022-12-03T03:08:39.264Z,37.50
2022-12-03T03:11:06.384Z,38.87
2022-12-03T03:13:35.416Z,38.37
2022-12-03T03:16:04.733Z,36.83
2022-12-03T03:18:33.684Z,40.13
2022-12-03T03:21:00.901Z,32.57
2022-12-03T03:23:27.959Z,39.10
2022-12-03T03:26:05.928Z,39.20
2022-12-03T03:28:38.319Z,31.30
2022-12-03T03:31:08.237Z,40.47
2022-12-03T03:33:36.492Z,33.73
2022-12-03T03:36:03.609Z,33.30
2022-12-03T03:38:31.898Z,35.60
2022-12-03T03:41:00.540Z,32.83
2022-12-03T03:43:28.729Z,33.23
2022-12-03T03:45:56.244Z,34.87
2022-12-03T03:48:23.586Z,29.13
2022-12-03T03:50:51.969Z,33.70
2022-12-03T03:53:20.761Z,30.03
2022-12-03T03:55:48.181Z,32.93
2022-12-03T03:58:15.175Z,32.03
2022-12-03T04:00:46.395Z,31.43
2022-12-03T04:03:13.460Z,32.40
2022-12-03T04:05:40.773Z,36.23
2022-12-03T04:08:07.789Z,35.13
2022-12-03T04:10:53.296Z,30.23
2022-12-03T04:13:20.238Z,35.93
2022-12-03T04:15:47.140Z,37.03
2022-12-03T04:18:32.661Z,34.73
2022-12-03T04:21:19.857Z,35.20
2022-12-03T04:23:46.801Z,32.73
2022-12-03T04:26:32.451Z,36.87
2022-12-03T04:28:59.482Z,44.47
2022-12-03T04:31:45.443Z,38.60
2022-12-03T04:34:30.890Z,37.20
2022-12-03T04:36:57.862Z,34.97
2022-12-03T04:39:24.934Z,36.97
2022-12-03T04:41:51.930Z,35.50
2022-12-03T04:44:36.350Z,32.77
2022-12-03T04:47:20.537Z,32.47
2022-12-03T04:49:50.482Z,36.43
2022-12-03T04:52:20.610Z,37.80
2022-12-03T04:54:47.847Z,37.37
2022-12-03T04:57:14.850Z,36.60
2022-12-03T04:59:41.771Z,33.63
2022-12-03T05:02:09.001Z,34.60
2022-12-03T05:04:36.038Z,35.53
2022-12-03T05:07:03.492Z,33.97
2022-12-03T05:09:30.443Z,37.60
2022-12-03T05:11:57.383Z,33.77
2022-12-03T05:14:24.307Z,30.73
2022-12-03T05:16:51.339Z,31.83
2022-12-03T05:19:18.412Z,37.70
2022-12-03T05:21:45.386Z,32.43
2022-12-03T05:24:12.279Z,39.53
2022-12-03T05:26:39.212Z,33.77
2022-12-03T05:29:06.165Z,34.70
2022-12-03T05:31:33.070Z,40.07
2022-12-03T05:34:00.084Z,30.70
2022-12-03T05:36:27.048Z,35.27
2022-12-03T05:38:53.995Z,37.40
2022-12-03T05:41:39.511Z,32.13
2022-12-03T05:44:06.489Z,35.63
2022-12-03T05:46:33.795Z,36.77
2022-12-03T05:49:01.020Z,32.23
2022-12-03T05:51:28.239Z,34.17
2022-12-03T05:53:55.165Z,35.97
2022-12-03T05:56:22.098Z,34.90
2022-12-03T05:58:48.997Z,33.77
2022-12-03T06:01:16.086Z,34.10
2022-12-03T06:03:43.118Z,35.10
2022-12-03T06:06:10.101Z,32.13
2022-12-03T06:08:36.994Z,37.47
2022-12-03T06:11:04.104Z,34.20
2022-12-03T06:13:31.006Z,39.80
2022-12-03T06:15:58.064Z,36.97
2022-12-03T06:18:25.046Z,29.80
2022-12-03T06:20:51.978Z,35.37
2022-12-03T06:23:18.999Z,31.30
2022-12-03T06:25:45.962Z,37.10
2022-12-03T06:28:12.941Z,32.87
2022-12-03T06:30:40.117Z,35.50
2022-12-03T06:33:07.043Z,31.10
2022-12-03T06:35:33.951Z,31.17
2022-12-03T06:38:00.946Z,35.87
2022-12-03T06:40:27.956Z,33.10
2022-12-03T06:42:54.910Z,37.23
2022-12-03T06:45:21.907Z,32.37
2022-12-03T06:47:48.873Z,30.93
2022-12-03T06:50:15.975Z,34.80
2022-12-03T06:52:42.882Z,33.17
2022-12-03T06:55:10.128Z,33.40
2022-12-03T06:57:37.103Z,34.23
2022-12-03T07:00:08.880Z,35.63
2022-12-03T07:02:36.527Z,34.63
2022-12-03T07:05:04.014Z,33.07
2022-12-03T07:07:31.060Z,32.20
2022-12-03T07:09:58.094Z,32.67
2022-12-03T07:12:25.034Z,30.47
2022-12-03T07:14:52.415Z,36.07
2022-12-03T07:17:19.690Z,35.63
2022-12-03T07:19:46.688Z,36.30
2022-12-03T07:22:13.679Z,35.07
2022-12-03T07:24:40.701Z,29.23
2022-12-03T07:27:07.799Z,31.30
2022-12-03T07:29:34.770Z,32.70
2022-12-03T07:32:01.679Z,31.43
2022-12-03T07:34:28.656Z,40.07
2022-12-03T07:36:55.619Z,33.27
2022-12-03T07:39:22.610Z,35.17
2022-12-03T07:41:49.811Z,37.00
2022-12-03T07:44:16.774Z,33.93
2022-12-03T07:46:43.886Z,33.43
2022-12-03T07:49:12.255Z,38.63
2022-12-03T07:51:39.350Z,36.30
2022-12-03T07:54:06.342Z,33.50
2022-12-03T07:56:33.359Z,35.20
2022-12-03T07:59:00.350Z,32.83
2022-12-03T08:01:27.386Z,38.57
2022-12-03T08:03:54.464Z,35.10
2022-12-03T08:06:21.386Z,32.00
2022-12-03T08:08:48.335Z,33.70
2022-12-03T08:11:15.794Z,32.27
2022-12-03T08:13:43.396Z,32.70
2022-12-03T08:16:22.100Z,33.50
2022-12-03T08:18:51.246Z,34.70
2022-12-03T08:21:20.994Z,33.17
2022-12-03T08:23:48.386Z,39.63
2022-12-03T08:26:25.626Z,32.47
2022-12-03T08:28:53.764Z,31.77
2022-12-03T08:31:32.891Z,32.40
2022-12-03T08:34:18.845Z,33.53
2022-12-03T08:36:47.651Z,33.33
2022-12-03T08:39:33.764Z,32.87
2022-12-03T08:42:44.179Z,31.57
2022-12-03T08:45:32.877Z,34.43
2022-12-03T08:48:05.819Z,33.43
2022-12-03T08:50:41.306Z,34.80
2022-12-03T08:53:14.221Z,37.60
2022-12-03T08:55:55.016Z,33.13
2022-12-03T08:58:40.139Z,35.37
2022-12-03T09:01:12.993Z,37.13
2022-12-03T09:03:51.116Z,34.97
2022-12-03T09:06:18.560Z,37.97
2022-12-03T09:08:45.501Z,41.40
2022-12-03T09:11:12.950Z,33.93
2022-12-03T09:13:39.966Z,33.27
2022-12-03T09:16:07.340Z,34.23
2022-12-03T09:18:34.374Z,32.13
2022-12-03T09:21:01.412Z,34.57
2022-12-03T09:23:28.334Z,33.47
2022-12-03T09:25:55.246Z,34.23
2022-12-03T09:28:22.171Z,31.93
2022-12-03T09:30:49.073Z,39.83
2022-12-03T09:33:16.089Z,36.57
2022-12-03T09:35:43.074Z,38.13
2022-12-03T09:38:10.014Z,39.50
2022-12-03T09:40:36.944Z,37.73
2022-12-03T09:43:04.549Z,31.43
2022-12-03T09:45:31.728Z,36.47
2022-12-03T09:48:01.162Z,34.37
2022-12-03T09:50:28.441Z,37.93
2022-12-03T09:53:00.328Z,34.43
2022-12-03T09:55:28.963Z,37.03
2022-12-03T09:57:57.816Z,34.40
2022-12-03T10:00:30.636Z,37.27
2022-12-03T10:03:02.907Z,36.87
2022-12-03T10:05:30.376Z,36.80
2022-12-03T10:08:18.149Z,34.23
2022-12-03T10:10:45.361Z,28.97
2022-12-03T10:13:25.275Z,36.40
2022-12-03T10:15:56.184Z,35.43
2022-12-03T10:18:32.729Z,35.00
2022-12-03T10:21:01.775Z,39.20
2022-12-03T10:23:31.184Z,35.27
2022-12-03T10:26:03.669Z,29.43
2022-12-03T10:28:37.245Z,32.27
2022-12-03T10:31:08.755Z,38.50
2022-12-03T10:33:39.235Z,35.60
2022-12-03T10:36:23.349Z,34.97
2022-12-03T10:39:16.471Z,37.83
2022-12-03T10:41:44.736Z,42.63
2022-12-03T10:44:25.528Z,39.43
2022-12-03T10:47:12.408Z,39.93
2022-12-03T10:49:41.544Z,33.17
2022-12-03T10:52:25.885Z,39.03
2022-12-03T10:54:53.528Z,38.67
2022-12-03T10:57:20.810Z,35.23
2022-12-03T10:59:47.759Z,34.93
2022-12-03T11:02:21.916Z,35.60
2022-12-03T11:04:50.379Z,39.63
2022-12-03T11:07:22.755Z,36.57
2022-12-03T11:09:54.699Z,37.93
2022-12-03T11:12:29.241Z,42.77
2022-12-03T11:14:56.775Z,35.57
2022-12-03T11:17:40.289Z,36.47
2022-12-03T11:20:25.672Z,46.03
2022-12-03T11:22:57.923Z,38.70
2022-12-03T11:25:28.010Z,36.67
2022-12-03T11:28:12.945Z,49.83
2022-12-03T11:30:49.200Z,41.10
2022-12-03T11:33:25.272Z,41.73
2022-12-03T11:36:04.180Z,39.10
2022-12-03T11:38:53.929Z,41.80
2022-12-03T11:41:33.504Z,42.37
2022-12-03T11:44:31.900Z,37.73
2022-12-03T11:47:00.517Z,35.67
2022-12-03T11:49:45.790Z,39.93
2022-12-03T11:52:27.170Z,42.33
2022-12-03T11:55:30.152Z,38.97
2022-12-03T11:58:06.005Z,40.43
2022-12-03T12:00:32.991Z,36.37
2022-12-03T12:03:00.013Z,37.07
2022-12-03T12:05:34.467Z,36.37
2022-12-03T12:08:03.430Z,45.43
2022-12-03T12:10:49.172Z,41.23
2022-12-03T12:13:31.012Z,40.47
2022-12-03T12:15:59.302Z,40.27
2022-12-03T12:18:44.930Z,40.50
2022-12-03T12:21:42.011Z,39.50
2022-12-03T12:25:01.251Z,39.70
2022-12-03T12:27:34.225Z,37.80
2022-12-03T12:30:15.499Z,42.73
2022-12-03T12:32:50.498Z,39.80
2022-12-03T12:35:32.543Z,40.50
2022-12-03T12:38:10.851Z,41.67
2022-12-03T12:40:40.764Z,38.97
2022-12-03T12:43:29.536Z,36.20
2022-12-03T12:46:18.754Z,40.53
2022-12-03T12:48:48.696Z,41.97
2022-12-03T12:51:18.894Z,46.23
2022-12-03T12:53:46.466Z,41.23
2022-12-03T12:56:44.989Z,40.10
2022-12-03T12:59:16.217Z,37.57
2022-12-03T13:01:45.847Z,37.17
2022-12-03T13:04:22.674Z,38.47
2022-12-03T13:06:52.906Z,40.77
2022-12-03T13:09:23.947Z,40.33
2022-12-03T13:11:58.126Z,42.90
2022-12-03T13:14:36.679Z,41.63
2022-12-03T13:17:19.624Z,46.60
2022-12-03T13:20:00.604Z,44.97
2022-12-03T13:22:30.718Z,41.57
2022-12-03T13:24:59.317Z,43.47
2022-12-03T13:27:30.026Z,41.27
2022-12-03T13:30:15.657Z,42.40
2022-12-03T13:32:43.531Z,38.37
2022-12-03T13:35:16.129Z,40.40
2022-12-03T13:37:43.233Z,45.13
2022-12-03T13:40:26.064Z,46.83
2022-12-03T13:42:54.296Z,46.63
2022-12-03T13:45:54.419Z,42.17
2022-12-03T13:48:31.865Z,42.93
2022-12-03T13:51:23.165Z,44.60
2022-12-03T13:53:50.200Z,42.77
2022-12-03T13:56:43.273Z,45.83
2022-12-03T13:59:10.269Z,39.93
2022-12-03T14:01:37.334Z,42.97
2022-12-03T14:04:04.706Z,53.73
2022-12-03T14:06:33.613Z,46.87
2022-12-03T14:09:00.755Z,50.60
2022-12-03T14:11:46.397Z,50.13
2022-12-03T14:14:13.502Z,46.00
2022-12-03T14:16:40.549Z,45.33
2022-12-03T14:19:07.756Z,47.87
2022-12-03T14:21:34.760Z,52.97
2022-12-03T14:24:01.702Z,43.57
2022-12-03T14:26:28.690Z,52.80
2022-12-03T14:28:55.614Z,52.30
2022-12-03T14:31:22.665Z,43.20
2022-12-03T14:33:49.668Z,56.90
2022-12-03T14:36:16.594Z,52.07
2022-12-03T14:38:43.523Z,53.23
2022-12-03T14:41:30.396Z,59.63
2022-12-03T14:43:57.367Z,57.43
2022-12-03T14:46:24.342Z,51.63
2022-12-03T14:48:51.288Z,52.63
2022-12-03T14:51:18.212Z,52.80
2022-12-03T14:53:45.183Z,52.13
2022-12-03T14:56:12.137Z,54.40
2022-12-03T14:58:39.114Z,50.20
2022-12-03T15:01:06.265Z,53.33
2022-12-03T15:03:33.298Z,47.80
2022-12-03T15:06:00.727Z,49.33
2022-12-03T15:08:30.404Z,47.53
2022-12-03T15:10:57.422Z,46.73
2022-12-03T15:13:24.373Z,53.63
2022-12-03T15:15:51.403Z,50.50
2022-12-03T15:18:18.678Z,57.30
2022-12-03T15:20:45.673Z,54.17
2022-12-03T15:23:14.549Z,51.13
2022-12-03T15:25:41.852Z,53.23
2022-12-03T15:28:08.999Z,49.83
2022-12-03T15:30:36.169Z,53.40
2022-12-03T15:33:04.154Z,51.03
2022-12-03T15:35:31.455Z,51.13
2022-12-03T15:37:58.637Z,60.03
2022-12-03T15:40:26.145Z,53.40
2022-12-03T15:42:53.223Z,56.10
2022-12-03T15:45:20.345Z,58.03
2022-12-03T15:47:47.310Z,52.40
2022-12-03T15:50:14.740Z,55.17
2022-12-03T15:52:41.764Z,54.73
2022-12-03T15:55:09.456Z,53.00
2022-12-03T15:57:36.422Z,56.37
2022-12-03T16:00:05.019Z,54.47
2022-12-03T16:02:35.630Z,58.63
2022-12-03T16:05:05.347Z,55.20
2022-12-03T16:07:32.420Z,62.87
2022-12-03T16:09:59.468Z,57.03
2022-12-03T16:12:26.382Z,63.47
2022-12-03T16:14:53.445Z,57.47
2022-12-03T16:17:20.624Z,58.23
2022-12-03T16:19:47.630Z,58.97
2022-12-03T16:22:15.052Z,62.73
2022-12-03T16:24:41.990Z,61.93
2022-12-03T16:27:09.021Z,60.13
2022-12-03T16:29:36.055Z,59.27
2022-12-03T16:32:03.407Z,61.97
2022-12-03T16:34:30.409Z,64.97
2022-12-03T16:36:57.339Z,56.07
2022-12-03T16:39:24.603Z,64.73
2022-12-03T16:41:51.703Z,65.67
2022-12-03T16:44:32.548Z,60.37
2022-12-03T16:47:01.449Z,61.00
2022-12-03T16:49:28.768Z,64.87
2022-12-03T16:51:55.700Z,60.63
2022-12-03T16:54:22.653Z,64.30
2022-12-03T16:56:49.619Z,68.60
2022-12-03T16:59:16.593Z,60.77
2022-12-03T17:01:43.694Z,69.27
2022-12-03T17:04:10.777Z,66.13
2022-12-03T17:06:37.880Z,61.83
2022-12-03T17:09:05.033Z,60.37
2022-12-03T17:11:31.994Z,64.43
2022-12-03T17:13:59.052Z,67.23
2022-12-03T17:16:26.041Z,67.53
2022-12-03T17:18:53.005Z,65.60
2022-12-03T17:21:20.015Z,68.97
2022-12-03T17:23:48.964Z,65.83
2022-12-03T17:26:15.946Z,69.23
2022-12-03T17:28:43.063Z,70.53
2022-12-03T17:31:10.360Z,72.17
2022-12-03T17:33:37.522Z,72.23
2022-12-03T17:36:05.173Z,75.07
2022-12-03T17:38:38.818Z,66.40
2022-12-03T17:41:07.514Z,72.83
2022-12-03T17:43:34.500Z,65.87
2022-12-03T17:46:01.534Z,70.47
2022-12-03T17:48:31.108Z,69.50
2022-12-03T17:50:58.225Z,70.97
2022-12-03T17:53:25.400Z,81.53
2022-12-03T17:55:52.344Z,76.77
2022-12-03T17:58:19.809Z,73.63
2022-12-03T18:00:46.882Z,67.97
2022-12-03T18:03:13.846Z,80.07
2022-12-03T18:05:41.702Z,77.93
2022-12-03T18:08:08.741Z,72.87
2022-12-03T18:10:35.878Z,75.37
2022-12-03T18:13:02.922Z,73.40
2022-12-03T18:15:30.885Z,87.20
2022-12-03T18:17:57.976Z,67.97
2022-12-03T18:20:24.983Z,74.57
2022-12-03T18:22:52.080Z,79.50
2022-12-03T18:25:19.445Z,85.53
2022-12-03T18:27:46.957Z,75.53
2022-12-03T18:30:14.141Z,84.50
2022-12-03T18:32:41.103Z,82.40
2022-12-03T18:35:08.413Z,74.27
2022-12-03T18:37:35.628Z,84.23
2022-12-03T18:40:12.486Z,93.93
2022-12-03T18:42:40.205Z,80.93
2022-12-03T18:45:11.291Z,80.33
2022-12-03T18:47:38.259Z,87.27
2022-12-03T18:50:07.248Z,84.47
2022-12-03T18:52:34.367Z,85.23
2022-12-03T18:55:01.734Z,78.67
2022-12-03T18:57:28.680Z,87.33
2022-12-03T18:59:55.949Z,71.17
2022-12-03T19:03:02.045Z,72.50
2022-12-03T19:05:10.485Z,76.40
2022-12-03T19:07:37.738Z,81.23
2022-12-03T19:10:05.795Z,93.00
2022-12-03T19:12:33.758Z,79.90
2022-12-03T19:15:00.928Z,74.03
2022-12-03T19:17:27.980Z,88.03
2022-12-03T19:19:55.618Z,79.27
2022-12-03T19:22:23.299Z,85.17
2022-12-03T19:24:50.724Z,90.80
2022-12-03T19:27:17.967Z,80.63
2022-12-03T19:29:48.273Z,88.17
2022-12-03T19:32:15.271Z,78.97
2022-12-03T19:34:42.660Z,82.80
2022-12-03T19:37:09.597Z,83.57
2022-12-03T19:39:36.623Z,76.97
2022-12-03T19:42:03.831Z,80.33
2022-12-03T19:44:31.029Z,84.03
2022-12-03T19:46:58.127Z,83.30
2022-12-03T19:49:25.316Z,80.23
2022-12-03T19:51:52.392Z,81.20
2022-12-03T19:54:19.609Z,80.57
2022-12-03T19:56:46.798Z,73.83
2022-12-03T19:59:14.376Z,71.97
2022-12-03T20:01:43.233Z,81.27
2022-12-03T20:04:12.134Z,78.10
2022-12-03T20:06:39.982Z,74.63
2022-12-03T20:09:13.838Z,79.00
2022-12-03T20:11:41.964Z,77.37
2022-12-03T20:14:14.935Z,79.43
2022-12-03T20:16:42.394Z,82.73
2022-12-03T20:19:12.770Z,75.97
2022-12-03T20:21:40.968Z,82.50
2022-12-03T20:24:11.405Z,82.47
2022-12-03T20:26:38.563Z,78.43
2022-12-03T20:29:05.549Z,76.43
2022-12-03T20:31:32.952Z,80.90
2022-12-03T20:34:02.523Z,81.97
2022-12-03T20:36:31.694Z,76.40
2022-12-03T20:39:05.800Z,86.87
2022-12-03T20:41:36.024Z,76.03
2022-12-03T20:44:03.776Z,76.07
2022-12-03T20:46:31.643Z,78.53
2022-12-03T20:48:59.633Z,80.57
2022-12-03T20:51:30.147Z,78.20
2022-12-03T20:53:59.169Z,74.07
2022-12-03T20:56:31.685Z,76.53
2022-12-03T20:59:06.442Z,77.50
2022-12-03T21:01:36.077Z,73.87
2022-12-03T21:04:04.929Z,69.73
2022-12-03T21:06:34.892Z,74.40
2022-12-03T21:09:05.131Z,76.53
2022-12-03T21:11:33.957Z,76.13
2022-12-03T21:14:00.943Z,62.80
2022-12-03T21:17:05.951Z,73.10
2022-12-03T21:19:22.386Z,74.53
2022-12-03T21:21:49.506Z,80.70
2022-12-03T21:24:16.557Z,72.97
2022-12-03T21:26:43.453Z,75.23
2022-12-03T21:29:10.476Z,80.43
2022-12-03T21:31:39.768Z,80.33
2022-12-03T21:34:08.451Z,78.03
2022-12-03T21:36:35.711Z,87.33
2022-12-03T21:39:02.657Z,74.77
2022-12-03T21:41:29.633Z,74.13
2022-12-03T21:43:56.539Z,84.00
2022-12-03T21:47:09.407Z,81.73
2022-12-03T21:49:10.455Z,83.20
2022-12-03T21:51:37.814Z,78.53
2022-12-03T21:54:04.926Z,81.57
2022-12-03T21:56:33.020Z,85.43
2022-12-03T21:59:00.002Z,82.90
2022-12-03T22:01:27.347Z,90.07
2022-12-03T22:03:54.382Z,77.90
2022-12-03T22:06:21.945Z,85.50
2022-12-03T22:08:49.341Z,93.30
2022-12-03T22:11:23.358Z,87.03
2022-12-03T22:13:50.826Z,78.57
2022-12-03T22:16:20.898Z,84.77
2022-12-03T22:18:48.267Z,84.30
2022-12-03T22:21:20.588Z,88.20
2022-12-03T22:23:47.846Z,80.60
2022-12-03T22:26:17.873Z,81.97
2022-12-03T22:28:47.391Z,93.30
2022-12-03T22:31:16.077Z,92.90
2022-12-03T22:33:43.741Z,85.73
2022-12-03T22:36:20.115Z,80.53
2022-12-03T22:38:49.674Z,79.60
2022-12-03T22:41:17.770Z,77.43
2022-12-03T22:43:45.957Z,75.60
2022-12-03T22:46:13.606Z,75.27
2022-12-03T22:48:46.336Z,76.07
2022-12-03T22:51:22.937Z,68.90
2022-12-03T22:53:59.587Z,77.10
2022-12-03T22:56:28.523Z,72.00
2022-12-03T22:58:55.691Z,75.20
2022-12-03T23:01:26.675Z,77.83
2022-12-03T23:03:54.432Z,69.93
2022-12-03T23:06:23.073Z,67.70
2022-12-03T23:08:50.548Z,67.27
2022-12-03T23:11:18.323Z,72.37
2022-12-03T23:13:45.462Z,72.90
2022-12-03T23:16:23.587Z,70.43
2022-12-03T23:18:50.962Z,68.80
2022-12-03T23:21:29.016Z,76.03
2022-12-03T23:24:01.435Z,69.77
2022-12-03T23:26:29.076Z,68.40
2022-12-03T23:28:56.716Z,67.77
2022-12-03T23:31:31.676Z,65.17
2022-12-03T23:33:59.822Z,72.60
2022-12-03T23:36:30.061Z,69.10
2022-12-03T23:38:57.082Z,61.93
2022-12-03T23:41:24.782Z,66.23
2022-12-03T23:43:52.113Z,67.40
2022-12-03T23:46:26.174Z,64.20
2022-12-03T23:48:53.593Z,65.23
2022-12-03T23:51:24.326Z,60.47
2022-12-03T23:53:53.198Z,60.87
2022-12-03T23:56:25.513Z,64.57
2022-12-03T23:58:52.559Z,69.57
